createdAt,value
2017-12-26T00:00:49.449Z,0
2017-12-26T00:01:59.536Z,0
2017-12-26T00:03:09.616Z,0
2017-12-26T00:04:20.192Z,0
2017-12-26T00:05:30.273Z,0
2017-12-26T00:06:40.865Z,0
2017-12-26T00:07:50.241Z,0
2017-12-26T00:09:00.232Z,0
2017-12-26T00:10:10.111Z,0
2017-12-26T00:11:18.858Z,0
2017-12-26T00:12:28.502Z,0
2017-12-26T00:13:38.297Z,0
2017-12-26T00:14:49.414Z,0
2017-12-26T00:15:58.487Z,0
2017-12-26T00:17:09.095Z,0
2017-12-26T00:18:19.456Z,0
2017-12-26T00:19:29.628Z,0
2017-12-26T00:20:38.706Z,0
2017-12-26T00:21:50.101Z,0
2017-12-26T00:23:00.373Z,0
2017-12-26T00:24:09.678Z,0
2017-12-26T00:25:20.891Z,0
2017-12-26T00:26:32.097Z,0
2017-12-26T00:27:41.113Z,0
2017-12-26T00:28:52.681Z,0
2017-12-26T00:30:01.411Z,0
2017-12-26T00:31:10.266Z,0
2017-12-26T00:32:20.751Z,0
2017-12-26T00:33:30.802Z,0
2017-12-26T00:34:40.865Z,0
2017-12-26T00:35:52.420Z,0
2017-12-26T00:37:01.446Z,0
2017-12-26T00:38:10.455Z,0
2017-12-26T00:39:19.442Z,0
2017-12-26T00:40:28.191Z,0
2017-12-26T00:41:38.431Z,0
2017-12-26T00:42:48.773Z,0
2017-12-26T00:43:58.051Z,0
2017-12-26T00:45:07.029Z,0
2017-12-26T00:46:17.084Z,0
2017-12-26T00:47:27.568Z,0
2017-12-26T00:48:36.561Z,0
2017-12-26T00:49:45.968Z,0
2017-12-26T00:50:56.287Z,0
2017-12-26T00:52:05.377Z,0
2017-12-26T00:53:14.727Z,0
2017-12-26T00:54:25.324Z,0
2017-12-26T00:55:34.698Z,0
2017-12-26T00:56:43.758Z,0
2017-12-26T00:57:53.021Z,0
2017-12-26T00:59:03.350Z,0
2017-12-26T01:00:12.589Z,0
2017-12-26T01:01:21.334Z,0
2017-12-26T01:02:30.418Z,0
2017-12-26T01:03:40.363Z,0
2017-12-26T01:04:49.765Z,0
2017-12-26T01:06:01.053Z,0
2017-12-26T01:07:10.074Z,0
2017-12-26T01:08:20.307Z,0
2017-12-26T01:09:29.645Z,0
2017-12-26T01:10:39.795Z,0
2017-12-26T01:11:50.174Z,0
2017-12-26T01:13:00.197Z,0
2017-12-26T01:14:08.932Z,0
2017-12-26T01:15:18.873Z,0
2017-12-26T01:16:28.970Z,0
2017-12-26T01:17:39.933Z,0
2017-12-26T01:18:50.165Z,0
2017-12-26T01:20:00.660Z,0
2017-12-26T01:21:10.725Z,0
2017-12-26T01:22:19.786Z,0
2017-12-26T01:23:28.563Z,0
2017-12-26T01:24:39.062Z,0
2017-12-26T01:25:48.590Z,0
2017-12-26T01:26:57.311Z,0
2017-12-26T01:28:08.888Z,0
2017-12-26T01:29:19.704Z,0
2017-12-26T01:30:28.444Z,0
2017-12-26T01:31:37.703Z,0
2017-12-26T01:32:48.091Z,0
2017-12-26T01:33:59.692Z,0
2017-12-26T01:35:08.422Z,0
2017-12-26T01:36:19.027Z,0
2017-12-26T01:37:29.092Z,0
2017-12-26T01:38:39.139Z,0
2017-12-26T01:39:49.465Z,0
2017-12-26T01:40:58.294Z,0
2017-12-26T01:42:08.265Z,0
2017-12-26T01:43:17.289Z,0
2017-12-26T01:44:26.283Z,0
2017-12-26T01:45:35.574Z,0
2017-12-26T01:46:45.942Z,0
2017-12-26T01:47:56.454Z,0
2017-12-26T01:49:07.758Z,0
2017-12-26T01:50:19.333Z,0
2017-12-26T01:51:30.623Z,0
2017-12-26T01:52:39.721Z,0
2017-12-26T01:53:50.064Z,0
2017-12-26T01:54:59.072Z,0
2017-12-26T01:56:08.716Z,0
2017-12-26T01:57:17.449Z,0
2017-12-26T01:58:27.403Z,0
2017-12-26T01:59:36.212Z,0
2017-12-26T02:00:45.730Z,0
2017-12-26T02:01:55.963Z,0
2017-12-26T02:03:05.076Z,0
2017-12-26T02:04:13.800Z,0
2017-12-26T02:05:22.794Z,0
2017-12-26T02:06:32.039Z,0
2017-12-26T02:07:40.772Z,0
2017-12-26T02:08:49.512Z,0
2017-12-26T02:09:58.599Z,0
2017-12-26T02:11:08.667Z,0
2017-12-26T02:12:17.387Z,0
2017-12-26T02:13:26.800Z,0
2017-12-26T02:14:35.815Z,0
2017-12-26T02:15:46.415Z,0
2017-12-26T02:16:55.167Z,0
2017-12-26T02:18:05.736Z,0
2017-12-26T02:19:16.071Z,0
2017-12-26T02:20:25.396Z,0
2017-12-26T02:21:34.139Z,0
2017-12-26T02:22:42.858Z,0
2017-12-26T02:23:54.166Z,0
2017-12-26T02:25:04.786Z,0
2017-12-26T02:26:13.518Z,0
2017-12-26T02:27:23.992Z,0
2017-12-26T02:28:33.107Z,0
2017-12-26T02:29:43.342Z,0
2017-12-26T02:30:52.344Z,0
2017-12-26T02:32:01.413Z,0
2017-12-26T02:33:10.430Z,0
2017-12-26T02:34:19.404Z,0
2017-12-26T02:35:29.488Z,0
2017-12-26T02:36:39.237Z,0
2017-12-26T02:37:48.421Z,0
2017-12-26T02:38:58.516Z,0
2017-12-26T02:40:07.511Z,0
2017-12-26T02:41:17.183Z,0
2017-12-26T02:42:25.913Z,0
2017-12-26T02:43:34.672Z,0
2017-12-26T02:44:44.007Z,0
2017-12-26T02:45:54.622Z,0
2017-12-26T02:47:04.991Z,0
2017-12-26T02:48:14.081Z,0
2017-12-26T02:49:23.060Z,0
2017-12-26T02:50:32.237Z,0
2017-12-26T02:51:41.600Z,0
2017-12-26T02:52:50.330Z,0
2017-12-26T02:53:59.504Z,0
2017-12-26T02:55:08.773Z,0
2017-12-26T02:56:19.373Z,0
2017-12-26T02:57:28.636Z,0
2017-12-26T02:58:38.949Z,0
2017-12-26T02:59:48.319Z,0
2017-12-26T03:00:57.657Z,0
2017-12-26T03:02:07.350Z,0
2017-12-26T03:03:18.956Z,0
2017-12-26T03:04:28.311Z,0
2017-12-26T03:05:38.908Z,0
2017-12-26T03:06:47.633Z,0
2017-12-26T03:07:57.974Z,0
2017-12-26T03:09:08.468Z,0
2017-12-26T03:10:17.456Z,0
2017-12-26T03:11:26.461Z,0
2017-12-26T03:12:35.794Z,0
2017-12-26T03:13:44.511Z,0
2017-12-26T03:14:53.779Z,0
2017-12-26T03:16:03.823Z,0
2017-12-26T03:17:14.280Z,0
2017-12-26T03:18:24.602Z,0
2017-12-26T03:19:34.691Z,0
2017-12-26T03:20:43.755Z,0
2017-12-26T03:21:54.357Z,0
2017-12-26T03:23:03.083Z,0
2017-12-26T03:24:12.784Z,0
2017-12-26T03:25:21.504Z,0
2017-12-26T03:26:31.566Z,0
2017-12-26T03:27:41.866Z,0
2017-12-26T03:28:50.590Z,0
2017-12-26T03:29:59.320Z,0
2017-12-26T03:31:08.543Z,0
2017-12-26T03:32:17.645Z,0
2017-12-26T03:33:26.478Z,0
2017-12-26T03:34:35.875Z,0
2017-12-26T03:35:46.557Z,0
2017-12-26T03:36:55.892Z,0
2017-12-26T03:38:05.252Z,0
2017-12-26T03:39:14.759Z,0
2017-12-26T03:40:23.749Z,0
2017-12-26T03:41:32.554Z,0
2017-12-26T03:42:42.861Z,0
2017-12-26T03:43:51.602Z,0
2017-12-26T03:45:00.949Z,0
2017-12-26T03:46:09.668Z,0
2017-12-26T03:47:20.956Z,0
2017-12-26T03:48:31.017Z,0
2017-12-26T03:49:40.069Z,0
2017-12-26T03:50:50.642Z,0
2017-12-26T03:51:59.615Z,0
2017-12-26T03:53:09.075Z,0
2017-12-26T03:54:18.320Z,0
2017-12-26T03:55:29.197Z,0
2017-12-26T03:56:40.737Z,0
2017-12-26T03:57:49.460Z,0
2017-12-26T03:58:58.939Z,0
2017-12-26T04:00:07.918Z,0
2017-12-26T04:01:17.027Z,0
2017-12-26T04:02:27.346Z,0
2017-12-26T04:03:36.239Z,0
2017-12-26T04:04:46.585Z,0
2017-12-26T04:05:55.677Z,0
2017-12-26T04:07:06.297Z,0
2017-12-26T04:08:15.038Z,0
2017-12-26T04:09:24.928Z,0
2017-12-26T04:10:34.903Z,0
2017-12-26T04:11:43.628Z,0
2017-12-26T04:12:52.755Z,0
2017-12-26T04:14:02.289Z,0
2017-12-26T04:15:11.903Z,0
2017-12-26T04:16:20.946Z,0
2017-12-26T04:17:31.505Z,0
2017-12-26T04:18:40.853Z,0
2017-12-26T04:19:51.163Z,0
2017-12-26T04:21:01.725Z,0
2017-12-26T04:22:10.954Z,0
2017-12-26T04:23:19.680Z,0
2017-12-26T04:24:28.928Z,0
2017-12-26T04:25:39.493Z,0
2017-12-26T04:26:48.987Z,0
2017-12-26T04:27:58.057Z,0
2017-12-26T04:29:06.890Z,0
2017-12-26T04:30:15.863Z,0
2017-12-26T04:31:24.846Z,0
2017-12-26T04:32:34.279Z,0
2017-12-26T04:33:44.596Z,0
2017-12-26T04:34:54.232Z,0
2017-12-26T04:36:03.251Z,0
2017-12-26T04:37:15.081Z,0
2017-12-26T04:38:25.155Z,0
2017-12-26T04:39:35.679Z,0
2017-12-26T04:40:44.677Z,0
2017-12-26T04:41:54.746Z,0
2017-12-26T04:43:04.169Z,0
2017-12-26T04:44:13.290Z,0
2017-12-26T04:45:24.833Z,0
2017-12-26T04:46:33.600Z,0
2017-12-26T04:47:43.455Z,0
2017-12-26T04:48:53.070Z,0
2017-12-26T04:50:01.785Z,0
2017-12-26T04:51:10.614Z,0
2017-12-26T04:52:20.947Z,0
2017-12-26T04:53:30.213Z,0
2017-12-26T04:54:39.382Z,0
2017-12-26T04:55:48.354Z,0
2017-12-26T04:56:57.340Z,0
2017-12-26T04:58:06.365Z,0
2017-12-26T04:59:15.354Z,0
2017-12-26T05:00:24.074Z,0
2017-12-26T05:01:34.495Z,0
2017-12-26T05:02:44.834Z,0
2017-12-26T05:03:53.799Z,0
2017-12-26T05:05:02.809Z,0
2017-12-26T05:06:14.090Z,0
2017-12-26T05:07:23.070Z,0
2017-12-26T05:08:31.793Z,0
2017-12-26T05:09:41.864Z,0
2017-12-26T05:10:51.220Z,0
2017-12-26T05:11:59.957Z,0
2017-12-26T05:13:10.064Z,0
2017-12-26T05:14:19.709Z,0
2017-12-26T05:15:28.477Z,0
2017-12-26T05:16:37.458Z,0
2017-12-26T05:17:46.787Z,0
2017-12-26T05:18:55.532Z,0
2017-12-26T05:20:04.524Z,0
2017-12-26T05:21:15.130Z,0
2017-12-26T05:22:25.087Z,0
2017-12-26T05:23:34.078Z,0
2017-12-26T05:24:43.450Z,0
2017-12-26T05:25:52.794Z,0
2017-12-26T05:27:04.489Z,0
2017-12-26T05:28:13.466Z,0
2017-12-26T05:29:23.794Z,0
2017-12-26T05:30:33.433Z,0
2017-12-26T05:31:43.028Z,0
2017-12-26T05:32:52.697Z,0
2017-12-26T05:34:04.746Z,0
2017-12-26T05:35:13.990Z,0
2017-12-26T05:36:23.328Z,0
2017-12-26T05:37:32.943Z,0
2017-12-26T05:38:42.349Z,0
2017-12-26T05:39:51.446Z,0
2017-12-26T05:41:01.066Z,0
2017-12-26T05:42:10.976Z,0
2017-12-26T05:43:21.804Z,0
2017-12-26T05:44:32.955Z,0
2017-12-26T05:45:43.524Z,0
2017-12-26T05:46:54.115Z,0
2017-12-26T05:48:03.565Z,0
2017-12-26T05:49:13.230Z,0
2017-12-26T05:50:22.517Z,0
2017-12-26T05:51:33.121Z,0
2017-12-26T05:52:43.953Z,0
2017-12-26T05:53:54.621Z,0
2017-12-26T05:55:04.538Z,0
2017-12-26T05:56:15.387Z,0
2017-12-26T05:57:25.004Z,0
2017-12-26T05:58:35.124Z,0
2017-12-26T05:59:45.275Z,0
2017-12-26T06:00:55.443Z,0
2017-12-26T06:02:05.532Z,0
2017-12-26T06:03:15.629Z,0
2017-12-26T06:04:25.732Z,0
2017-12-26T06:05:35.849Z,0
2017-12-26T06:06:45.948Z,0
2017-12-26T06:07:56.040Z,0
2017-12-26T06:09:06.186Z,0
2017-12-26T06:10:16.328Z,0
2017-12-26T06:11:27.230Z,0
2017-12-26T06:12:37.381Z,0
2017-12-26T06:13:47.476Z,0
2017-12-26T06:14:57.408Z,0
2017-12-26T06:16:07.502Z,0
2017-12-26T06:17:17.378Z,0
2017-12-26T06:18:27.490Z,0
2017-12-26T06:19:37.604Z,0
2017-12-26T06:20:47.377Z,0
2017-12-26T06:21:57.485Z,0
2017-12-26T06:23:07.330Z,0
2017-12-26T06:24:17.177Z,0
2017-12-26T06:25:27.278Z,0
2017-12-26T06:26:37.118Z,0
2017-12-26T06:27:47.233Z,0
2017-12-26T06:28:57.341Z,0
2017-12-26T06:30:07.466Z,0
2017-12-26T06:31:17.595Z,0
2017-12-26T06:32:27.700Z,0
2017-12-26T06:33:37.868Z,0
2017-12-26T06:34:47.971Z,0
2017-12-26T06:35:58.073Z,0
2017-12-26T06:37:08.009Z,0
2017-12-26T06:38:18.122Z,0
2017-12-26T06:39:28.213Z,0
2017-12-26T06:40:38.338Z,0
2017-12-26T06:41:48.473Z,0
2017-12-26T06:42:58.580Z,0
2017-12-26T06:44:08.824Z,0
2017-12-26T06:45:18.680Z,0
2017-12-26T06:46:28.815Z,0
2017-12-26T06:47:38.906Z,0
2017-12-26T06:48:49.029Z,0
2017-12-26T06:49:59.134Z,0
2017-12-26T06:51:09.230Z,0
2017-12-26T06:52:19.092Z,0
2017-12-26T06:53:29.193Z,0
2017-12-26T06:54:39.311Z,0
2017-12-26T06:55:49.472Z,0
2017-12-26T06:56:59.562Z,0
2017-12-26T06:58:09.694Z,0
2017-12-26T06:59:19.829Z,0
2017-12-26T07:00:30.136Z,0
2017-12-26T07:01:40.277Z,0
2017-12-26T07:02:50.471Z,0
2017-12-26T07:04:00.585Z,0
2017-12-26T07:05:11.684Z,0
2017-12-26T07:06:21.780Z,0
2017-12-26T07:07:31.945Z,0
2017-12-26T07:08:42.069Z,0
2017-12-26T07:09:52.165Z,0
2017-12-26T07:11:02.286Z,0
2017-12-26T07:12:12.402Z,0
2017-12-26T07:13:22.513Z,0
2017-12-26T07:14:32.719Z,5
2017-12-26T07:15:42.919Z,5
2017-12-26T07:16:53.044Z,5
2017-12-26T07:18:04.132Z,5
2017-12-26T07:19:14.268Z,5
2017-12-26T07:20:24.359Z,5
2017-12-26T07:21:34.493Z,5
2017-12-26T07:22:44.612Z,10
2017-12-26T07:23:54.706Z,10
2017-12-26T07:25:04.814Z,10
2017-12-26T07:26:14.963Z,10
2017-12-26T07:27:24.825Z,10
2017-12-26T07:28:34.672Z,10
2017-12-26T07:29:44.790Z,10
2017-12-26T07:30:54.924Z,15
2017-12-26T07:32:05.032Z,15
2017-12-26T07:33:15.204Z,15
2017-12-26T07:34:25.341Z,15
2017-12-26T07:35:35.478Z,15
2017-12-26T07:36:45.610Z,15
2017-12-26T07:37:55.719Z,20
2017-12-26T07:39:05.883Z,20
2017-12-26T07:40:16.022Z,20
2017-12-26T07:41:26.113Z,20
2017-12-26T07:42:35.979Z,20
2017-12-26T07:43:45.826Z,25
2017-12-26T07:44:55.946Z,25
2017-12-26T07:46:06.098Z,25
2017-12-26T07:47:16.209Z,25
2017-12-26T07:48:26.365Z,25
2017-12-26T07:49:36.481Z,30
2017-12-26T07:50:46.701Z,30
2017-12-26T07:51:56.583Z,30
2017-12-26T07:53:06.707Z,30
2017-12-26T07:54:16.927Z,35
2017-12-26T07:55:27.117Z,35
2017-12-26T07:56:37.261Z,35
2017-12-26T07:57:47.428Z,35
2017-12-26T07:58:57.607Z,40
2017-12-26T08:00:07.554Z,40
2017-12-26T08:01:17.661Z,40
2017-12-26T08:02:27.934Z,40
2017-12-26T08:03:38.186Z,45
2017-12-26T08:04:48.424Z,45
2017-12-26T08:05:58.628Z,45
2017-12-26T08:07:08.808Z,50
2017-12-26T08:08:19.050Z,50
2017-12-26T08:09:29.223Z,50
2017-12-26T08:10:39.415Z,55
2017-12-26T08:11:49.654Z,55
2017-12-26T08:12:59.836Z,60
2017-12-26T08:14:09.993Z,60
2017-12-26T08:15:20.115Z,65
2017-12-26T08:16:30.253Z,70
2017-12-26T08:17:40.364Z,75
2017-12-26T08:18:50.474Z,75
2017-12-26T08:20:00.344Z,75
2017-12-26T08:21:10.583Z,75
2017-12-26T08:22:20.752Z,80
2017-12-26T08:23:30.619Z,80
2017-12-26T08:24:40.730Z,85
2017-12-26T08:25:50.859Z,85
2017-12-26T08:27:01.061Z,85
2017-12-26T08:28:10.931Z,80
2017-12-26T08:29:21.148Z,80
2017-12-26T08:30:32.345Z,80
2017-12-26T08:31:42.196Z,85
2017-12-26T08:32:52.160Z,85
2017-12-26T08:34:02.303Z,85
2017-12-26T08:35:12.427Z,90
2017-12-26T08:36:22.533Z,90
2017-12-26T08:37:32.719Z,100
2017-12-26T08:38:42.875Z,105
2017-12-26T08:39:53.058Z,110
2017-12-26T08:41:03.249Z,110
2017-12-26T08:42:13.172Z,110
2017-12-26T08:43:23.513Z,115
2017-12-26T08:44:33.634Z,115
2017-12-26T08:45:43.386Z,115
2017-12-26T08:46:53.497Z,115
2017-12-26T08:48:03.700Z,120
2017-12-26T08:49:13.839Z,120
2017-12-26T08:50:24.020Z,120
2017-12-26T08:51:34.168Z,125
2017-12-26T08:52:44.271Z,125
2017-12-26T08:53:54.426Z,125
2017-12-26T08:55:04.534Z,130
2017-12-26T08:56:14.691Z,130
2017-12-26T08:57:24.873Z,130
2017-12-26T08:58:35.102Z,130
2017-12-26T08:59:45.243Z,130
2017-12-26T09:00:54.843Z,130
2017-12-26T09:02:04.947Z,135
2017-12-26T09:03:15.172Z,135
2017-12-26T09:04:25.322Z,135
2017-12-26T09:05:35.211Z,135
2017-12-26T09:06:45.392Z,135
2017-12-26T09:07:55.573Z,140
2017-12-26T09:09:05.686Z,140
2017-12-26T09:10:15.897Z,145
2017-12-26T09:11:26.165Z,145
2017-12-26T09:12:36.461Z,145
2017-12-26T09:13:46.705Z,145
2017-12-26T09:14:56.859Z,150
2017-12-26T09:16:07.003Z,150
2017-12-26T09:17:17.308Z,150
2017-12-26T09:18:27.524Z,150
2017-12-26T09:19:37.670Z,150
2017-12-26T09:20:47.805Z,150
2017-12-26T09:21:57.660Z,155
2017-12-26T09:23:07.421Z,155
2017-12-26T09:24:17.592Z,155
2017-12-26T09:25:27.743Z,160
2017-12-26T09:26:37.901Z,160
2017-12-26T09:27:48.012Z,160
2017-12-26T09:28:57.893Z,165
2017-12-26T09:30:08.022Z,165
2017-12-26T09:31:18.173Z,170
2017-12-26T09:32:28.299Z,170
2017-12-26T09:33:38.192Z,170
2017-12-26T09:34:48.054Z,175
2017-12-26T09:35:58.293Z,175
2017-12-26T09:37:08.478Z,180
2017-12-26T09:38:18.610Z,180
2017-12-26T09:39:28.732Z,185
2017-12-26T09:40:38.607Z,185
2017-12-26T09:41:48.703Z,185
2017-12-26T09:42:58.819Z,190
2017-12-26T09:44:08.936Z,190
2017-12-26T09:45:18.939Z,195
2017-12-26T09:46:29.078Z,200
2017-12-26T09:47:39.184Z,200
2017-12-26T09:48:49.310Z,205
2017-12-26T09:49:59.450Z,210
2017-12-26T09:51:09.602Z,205
2017-12-26T09:52:19.536Z,215
2017-12-26T09:53:29.674Z,215
2017-12-26T09:54:39.819Z,220
2017-12-26T09:55:49.607Z,220
2017-12-26T09:56:59.785Z,225
2017-12-26T09:58:09.660Z,225
2017-12-26T09:59:20.764Z,230
2017-12-26T10:00:30.892Z,235
2017-12-26T10:01:41.002Z,240
2017-12-26T10:02:51.117Z,245
2017-12-26T10:04:01.332Z,255
2017-12-26T10:05:10.946Z,275
2017-12-26T10:06:21.061Z,340
2017-12-26T10:07:31.196Z,415
2017-12-26T10:08:41.060Z,400
2017-12-26T10:09:51.226Z,375
2017-12-26T10:11:01.339Z,390
2017-12-26T10:12:11.507Z,405
2017-12-26T10:13:21.622Z,500
2017-12-26T10:14:31.774Z,740
2017-12-26T10:15:41.937Z,645
2017-12-26T10:16:52.067Z,240
2017-12-26T10:18:02.199Z,235
2017-12-26T10:19:12.585Z,240
2017-12-26T10:20:22.720Z,190
2017-12-26T10:21:32.866Z,205
2017-12-26T10:22:43.001Z,215
2017-12-26T10:23:53.186Z,190
2017-12-26T10:25:03.059Z,140
2017-12-26T10:26:13.181Z,120
2017-12-26T10:27:24.053Z,120
2017-12-26T10:28:34.203Z,145
2017-12-26T10:29:44.374Z,190
2017-12-26T10:30:54.517Z,195
2017-12-26T10:32:04.730Z,160
2017-12-26T10:33:14.971Z,155
2017-12-26T10:34:25.116Z,135
2017-12-26T10:35:35.346Z,135
2017-12-26T10:36:45.578Z,150
2017-12-26T10:37:55.445Z,165
2017-12-26T10:39:05.475Z,175
2017-12-26T10:40:15.366Z,170
2017-12-26T10:41:25.513Z,195
2017-12-26T10:42:35.743Z,175
2017-12-26T10:43:45.895Z,115
2017-12-26T10:44:56.083Z,135
2017-12-26T10:46:06.300Z,115
2017-12-26T10:47:16.106Z,110
2017-12-26T10:48:26.252Z,120
2017-12-26T10:49:36.455Z,115
2017-12-26T10:50:46.596Z,115
2017-12-26T10:51:56.419Z,65
2017-12-26T10:53:06.581Z,60
2017-12-26T10:54:17.051Z,75
2017-12-26T10:55:27.173Z,45
2017-12-26T10:56:43.369Z,40
2017-12-26T10:57:54.083Z,40
2017-12-26T10:59:04.223Z,25
2017-12-26T11:00:14.392Z,40
2017-12-26T11:01:24.541Z,30
2017-12-26T11:02:34.769Z,30
2017-12-26T11:03:44.928Z,40
2017-12-26T11:04:55.082Z,40
2017-12-26T11:06:05.225Z,45
2017-12-26T11:07:16.359Z,40
2017-12-26T11:08:26.546Z,35
2017-12-26T11:09:36.902Z,50
2017-12-26T11:10:47.045Z,40
2017-12-26T11:11:57.202Z,50
2017-12-26T11:13:07.337Z,40
2017-12-26T11:14:17.311Z,50
2017-12-26T11:15:27.441Z,50
2017-12-26T11:16:37.593Z,45
2017-12-26T11:17:47.778Z,40
2017-12-26T11:18:57.895Z,60
2017-12-26T11:20:08.063Z,45
2017-12-26T11:21:18.248Z,65
2017-12-26T11:22:28.394Z,60
2017-12-26T11:23:38.534Z,55
2017-12-26T11:24:48.331Z,65
2017-12-26T11:25:58.470Z,50
2017-12-26T11:27:08.607Z,55
2017-12-26T11:28:18.758Z,60
2017-12-26T11:29:28.901Z,70
2017-12-26T11:30:39.042Z,65
2017-12-26T11:31:49.193Z,70
2017-12-26T11:32:59.338Z,85
2017-12-26T11:34:09.496Z,65
2017-12-26T11:35:19.631Z,60
2017-12-26T11:36:29.774Z,60
2017-12-26T11:37:39.952Z,65
2017-12-26T11:38:49.991Z,80
2017-12-26T11:39:59.849Z,85
2017-12-26T11:41:09.751Z,75
2017-12-26T11:42:19.938Z,65
2017-12-26T11:43:29.829Z,65
2017-12-26T11:44:39.965Z,60
2017-12-26T11:45:50.102Z,55
2017-12-26T11:47:00.362Z,50
2017-12-26T11:48:10.500Z,55
2017-12-26T11:49:20.661Z,55
2017-12-26T11:50:30.795Z,60
2017-12-26T11:51:40.954Z,65
2017-12-26T11:52:51.084Z,60
2017-12-26T11:54:01.240Z,55
2017-12-26T11:55:11.412Z,60
2017-12-26T11:56:22.693Z,60
2017-12-26T11:57:32.879Z,55
2017-12-26T11:58:43.086Z,50
2017-12-26T11:59:52.864Z,60
2017-12-26T12:01:03.125Z,65
2017-12-26T12:02:13.269Z,65
2017-12-26T12:03:23.507Z,50
2017-12-26T12:04:33.685Z,65
2017-12-26T12:05:43.897Z,75
2017-12-26T12:06:55.046Z,75
2017-12-26T12:08:05.193Z,70
2017-12-26T12:09:15.333Z,75
2017-12-26T12:10:25.460Z,75
2017-12-26T12:11:35.679Z,75
2017-12-26T12:12:45.573Z,90
2017-12-26T12:13:55.452Z,120
2017-12-26T12:15:05.730Z,130
2017-12-26T12:16:15.878Z,145
2017-12-26T12:17:26.002Z,150
2017-12-26T12:18:36.168Z,140
2017-12-26T12:19:46.319Z,140
2017-12-26T12:20:56.450Z,155
2017-12-26T12:22:06.331Z,130
2017-12-26T12:23:16.456Z,95
2017-12-26T12:24:26.393Z,70
2017-12-26T12:25:36.579Z,50
2017-12-26T12:26:46.735Z,35
2017-12-26T12:27:56.864Z,40
2017-12-26T12:29:07.014Z,40
2017-12-26T12:30:17.206Z,55
2017-12-26T12:31:27.391Z,70
2017-12-26T12:32:37.547Z,80
2017-12-26T12:33:47.718Z,75
2017-12-26T12:34:57.625Z,60
2017-12-26T12:36:07.795Z,60
2017-12-26T12:37:17.935Z,55
2017-12-26T12:38:28.107Z,55
2017-12-26T12:39:38.285Z,60
2017-12-26T12:40:48.456Z,65
2017-12-26T12:41:58.634Z,75
2017-12-26T12:43:08.798Z,85
2017-12-26T12:44:18.925Z,100
2017-12-26T12:45:28.865Z,115
2017-12-26T12:46:39.031Z,145
2017-12-26T12:47:49.154Z,145
2017-12-26T12:48:59.163Z,90
2017-12-26T12:50:09.362Z,65
2017-12-26T12:51:19.635Z,65
2017-12-26T12:52:29.563Z,65
2017-12-26T12:53:39.752Z,90
2017-12-26T12:54:49.882Z,115
2017-12-26T12:56:00.034Z,115
2017-12-26T12:57:10.189Z,80
2017-12-26T12:58:20.411Z,80
2017-12-26T12:59:30.197Z,65
2017-12-26T13:00:39.961Z,50
2017-12-26T13:01:50.116Z,30
2017-12-26T13:03:00.341Z,25
2017-12-26T13:04:10.480Z,30
2017-12-26T13:05:20.620Z,40
2017-12-26T13:06:30.805Z,75
2017-12-26T13:07:40.931Z,95
2017-12-26T13:08:51.087Z,80
2017-12-26T13:10:01.208Z,60
2017-12-26T13:11:11.385Z,60
2017-12-26T13:12:21.543Z,60
2017-12-26T13:13:31.680Z,70
2017-12-26T13:14:41.807Z,85
2017-12-26T13:15:51.964Z,90
2017-12-26T13:17:02.166Z,90
2017-12-26T13:18:12.340Z,100
2017-12-26T13:19:22.490Z,105
2017-12-26T13:20:32.540Z,110
2017-12-26T13:21:42.670Z,115
2017-12-26T13:22:52.825Z,120
2017-12-26T13:24:02.698Z,125
2017-12-26T13:25:13.839Z,120
2017-12-26T13:26:23.507Z,110
2017-12-26T13:27:33.377Z,105
2017-12-26T13:28:43.375Z,100
2017-12-26T13:29:54.482Z,85
2017-12-26T13:31:04.784Z,70
2017-12-26T13:32:14.946Z,65
2017-12-26T13:33:25.197Z,60
2017-12-26T13:34:35.470Z,60
2017-12-26T13:35:45.644Z,60
2017-12-26T13:36:55.796Z,55
2017-12-26T13:38:05.925Z,45
2017-12-26T13:39:16.030Z,40
2017-12-26T13:40:25.909Z,35
2017-12-26T13:41:36.066Z,35
2017-12-26T13:42:46.232Z,35
2017-12-26T13:43:56.180Z,35
2017-12-26T13:45:06.349Z,40
2017-12-26T13:46:16.722Z,35
2017-12-26T13:47:26.874Z,35
2017-12-26T13:48:37.081Z,35
2017-12-26T13:49:47.229Z,35
2017-12-26T13:50:57.019Z,30
2017-12-26T13:52:06.907Z,25
2017-12-26T13:53:17.159Z,20
2017-12-26T13:54:27.327Z,20
2017-12-26T13:55:37.499Z,20
2017-12-26T13:56:47.645Z,20
2017-12-26T13:57:58.834Z,15
2017-12-26T13:59:09.102Z,15
2017-12-26T14:00:19.289Z,15
2017-12-26T14:01:29.582Z,15
2017-12-26T14:02:39.713Z,15
2017-12-26T14:03:49.610Z,15
2017-12-26T14:04:59.726Z,15
2017-12-26T14:06:09.955Z,15
2017-12-26T14:07:20.114Z,15
2017-12-26T14:08:30.252Z,15
2017-12-26T14:09:40.545Z,15
2017-12-26T14:10:50.753Z,15
2017-12-26T14:12:00.904Z,15
2017-12-26T14:13:11.024Z,15
2017-12-26T14:14:21.151Z,15
2017-12-26T14:15:31.369Z,15
2017-12-26T14:16:41.490Z,15
2017-12-26T14:17:51.352Z,15
2017-12-26T14:19:02.463Z,15
2017-12-26T14:20:12.645Z,15
2017-12-26T14:21:22.817Z,15
2017-12-26T14:22:33.130Z,15
2017-12-26T14:23:43.280Z,15
2017-12-26T14:24:54.405Z,15
2017-12-26T14:26:04.580Z,15
2017-12-26T14:27:14.721Z,20
2017-12-26T14:28:24.839Z,20
2017-12-26T14:29:35.054Z,20
2017-12-26T14:30:45.169Z,20
2017-12-26T14:31:55.339Z,20
2017-12-26T14:33:06.502Z,20
2017-12-26T14:34:16.678Z,20
2017-12-26T14:35:26.602Z,20
2017-12-26T14:36:36.744Z,20
2017-12-26T14:37:46.884Z,15
2017-12-26T14:38:58.020Z,15
2017-12-26T14:40:07.784Z,15
2017-12-26T14:41:17.723Z,15
2017-12-26T14:42:27.930Z,15
2017-12-26T14:43:38.081Z,15
2017-12-26T14:44:49.169Z,15
2017-12-26T14:45:59.401Z,15
2017-12-26T14:47:09.535Z,15
2017-12-26T14:48:19.700Z,10
2017-12-26T14:49:29.840Z,10
2017-12-26T14:50:39.973Z,10
2017-12-26T14:51:50.144Z,10
2017-12-26T14:53:01.005Z,10
2017-12-26T14:54:11.120Z,10
2017-12-26T14:55:21.233Z,10
2017-12-26T14:56:31.357Z,10
2017-12-26T14:57:41.545Z,10
2017-12-26T14:58:51.481Z,5
2017-12-26T15:00:01.621Z,5
2017-12-26T15:01:11.856Z,5
2017-12-26T15:02:22.091Z,5
2017-12-26T15:03:32.248Z,5
2017-12-26T15:04:42.411Z,5
2017-12-26T15:05:52.567Z,5
2017-12-26T15:07:02.686Z,5
2017-12-26T15:08:12.803Z,5
2017-12-26T15:09:22.920Z,5
2017-12-26T15:10:33.070Z,5
2017-12-26T15:11:43.207Z,5
2017-12-26T15:12:53.400Z,5
2017-12-26T15:14:03.544Z,0
2017-12-26T15:15:13.692Z,0
2017-12-26T15:16:23.851Z,0
2017-12-26T15:17:34.011Z,0
2017-12-26T15:18:44.187Z,0
2017-12-26T15:19:54.365Z,0
2017-12-26T15:21:04.576Z,0
2017-12-26T15:22:14.771Z,0
2017-12-26T15:23:24.938Z,0
2017-12-26T15:24:35.084Z,0
2017-12-26T15:25:45.255Z,0
2017-12-26T15:26:55.380Z,0
2017-12-26T15:28:05.495Z,0
2017-12-26T15:29:15.639Z,0
2017-12-26T15:30:25.764Z,0
2017-12-26T15:31:35.900Z,0
2017-12-26T15:32:46.040Z,0
2017-12-26T15:33:56.227Z,0
2017-12-26T15:35:06.352Z,0
2017-12-26T15:36:16.502Z,0
2017-12-26T15:37:26.676Z,0
2017-12-26T15:38:36.552Z,0
2017-12-26T15:39:46.691Z,0
2017-12-26T15:40:56.885Z,0
2017-12-26T15:42:07.045Z,0
2017-12-26T15:43:18.185Z,0
2017-12-26T15:44:27.822Z,0
2017-12-26T15:45:37.993Z,0
2017-12-26T15:46:48.140Z,0
2017-12-26T15:47:58.303Z,0
2017-12-26T15:49:08.448Z,0
2017-12-26T15:50:18.572Z,0
2017-12-26T15:51:28.715Z,0
2017-12-26T15:52:38.887Z,0
2017-12-26T15:53:49.015Z,0
2017-12-26T15:54:58.791Z,0
2017-12-26T15:56:08.921Z,0
2017-12-26T15:57:20.650Z,0
2017-12-26T15:58:30.909Z,0
2017-12-26T15:59:41.048Z,0
2017-12-26T16:00:51.232Z,0
2017-12-26T16:02:01.461Z,0
2017-12-26T16:03:11.734Z,0
2017-12-26T16:04:21.910Z,0
2017-12-26T16:05:32.122Z,0
2017-12-26T16:06:42.313Z,0
2017-12-26T16:07:52.467Z,0
2017-12-26T16:09:02.718Z,0
2017-12-26T16:10:12.648Z,0
2017-12-26T16:11:22.825Z,0
2017-12-26T16:12:32.993Z,0
2017-12-26T16:13:43.157Z,0
2017-12-26T16:14:53.088Z,0
2017-12-26T16:16:03.218Z,0
2017-12-26T16:17:13.466Z,0
2017-12-26T16:18:23.657Z,0
2017-12-26T16:19:33.869Z,0
2017-12-26T16:20:43.641Z,0
2017-12-26T16:21:53.872Z,0
2017-12-26T16:23:03.742Z,0
2017-12-26T16:24:13.851Z,0
2017-12-26T16:25:24.047Z,0
2017-12-26T16:26:34.198Z,0
2017-12-26T16:27:44.353Z,0
2017-12-26T16:28:54.519Z,0
2017-12-26T16:30:04.698Z,0
2017-12-26T16:31:14.873Z,0
2017-12-26T16:32:24.992Z,0
2017-12-26T16:33:35.132Z,0
2017-12-26T16:34:45.251Z,0
2017-12-26T16:35:55.374Z,0
2017-12-26T16:37:05.664Z,0
2017-12-26T16:38:15.918Z,0
2017-12-26T16:39:26.151Z,0
2017-12-26T16:40:36.338Z,0
2017-12-26T16:41:46.533Z,0
2017-12-26T16:42:56.301Z,0
2017-12-26T16:44:06.501Z,0
2017-12-26T16:45:16.729Z,0
2017-12-26T16:46:26.919Z,0
2017-12-26T16:47:37.137Z,0
2017-12-26T16:48:47.453Z,0
2017-12-26T16:49:57.747Z,0
2017-12-26T16:51:08.865Z,0
2017-12-26T16:52:18.799Z,0